Home   Weather   USA   Spring Valley   Past weeks
Flag for USA

Past Weather in Spring Valley, Minnesota, USA — Yesterday and Last 2 Weeks

Currently: 79 °F. Passing clouds. (Weather station: Fillmore County Airport, USA). See more current weather

Past Weather in Spring Valley — Graph

°F

Spring Valley Temperature Yesterday

Maximum temperature yesterday: 86 °F (at 2:15 pm)
Minimum temperature yesterday: 66 °F (at 6:15 am)
Average temperature yesterday: 76 °F

High & Low Weather Summary for the Past Weeks

 TemperatureHumidityPressure
High86 °F (Jul 13, 2:15 pm)100% (Jun 29, 10:55 pm)30.36 "Hg (Jun 29, 10:55 pm)
Low50 °F (Jun 30, 4:55 am)46% (Jun 30, 4:15 pm)29.78 "Hg (Jul 2, 6:15 pm)
Average69 °F85%30.00 "Hg
* Reported Jun 29 10:15 am — Jul 14 10:55 am, Spring Valley. Weather by CustomWeather, © 2024

Note: Actual official high and low records may vary slightly from our data, if they occured in-between our weather recording intervals... More about our weather records

Spring Valley Weather History for the Previous 24 Hours

Scroll right to see more
 ConditionsComfort  
Time TempWeatherWind HumidityBarometerVisibility
10:55 am
Sun, Jul 14
77 °FOvercast.9 mph89%29.93 "Hg10 mi
10:35 am77 °FOvercast.9 mph83%29.94 "Hg10 mi
10:15 am77 °FOvercast.7 mph83%29.93 "Hg10 mi
9:55 am75 °FPartly sunny.8 mph89%29.92 "Hg10 mi
9:15 am73 °FSunny.10 mph89%29.92 "Hg10 mi
8:35 am72 °FSunny.9 mph94%29.92 "Hg10 mi
7:55 am70 °FSunny.10 mph100%29.93 "Hg10 mi
7:35 am68 °FSunny.12 mph100%29.93 "Hg10 mi
6:55 am66 °FOvercast.12 mph100%29.94 "Hg10 mi
6:15 am66 °FPassing clouds.9 mph100%29.95 "Hg10 mi
5:55 am66 °FSunny.3 mph100%29.95 "Hg8 mi
5:35 am66 °FClear.No wind100%29.94 "Hg10 mi
4:55 am66 °FPassing clouds.12 mph100%29.95 "Hg10 mi
4:15 am66 °FRain. Fog.21 mph100%29.97 "Hg3 mi
3:55 am66 °FRain. Fog.15 mph100%30.01 "Hg3 mi
3:35 am70 °FThundershowers. Fog.22 mph100%29.99 "Hg5 mi
2:55 am72 °FThundershowers. Partly cloudy.7 mph100%29.90 "Hg10 mi
2:35 am72 °FPassing clouds.10 mph100%29.90 "Hg10 mi
2:15 am72 °FThundershowers. Passing clouds.10 mph100%29.92 "Hg10 mi
1:55 am70 °FClear.8 mph100%29.92 "Hg10 mi
1:35 am70 °FClear.10 mph100%29.91 "Hg10 mi
1:15 am70 °FPassing clouds.8 mph100%29.91 "Hg10 mi
12:55 am68 °FPassing clouds.10 mph100%29.92 "Hg10 mi
12:35 am68 °FClear.9 mph100%29.95 "Hg10 mi
11:55 pm
Sat, Jul 13
68 °FClear.8 mph100%29.97 "Hg10 mi
11:35 pm68 °FClear.8 mph100%29.96 "Hg10 mi
11:15 pm68 °FClear.8 mph100%29.95 "Hg10 mi
10:55 pm70 °FClear.7 mph100%29.95 "Hg10 mi
10:35 pm68 °FMild.9 mph100%29.95 "Hg10 mi
9:55 pm68 °FMild.8 mph100%29.93 "Hg10 mi
7:15 pm81 °FThundershowers. Broken clouds.6 mph100%29.94 "Hg9 mi
6:55 pm82 °FThundershowers. Sunny.3 mph89%29.95 "Hg9 mi
6:35 pm82 °FThundershowers. Broken clouds.7 mph89%29.95 "Hg10 mi
6:15 pm82 °FThundershowers. Partly sunny.5 mph89%29.96 "Hg10 mi
5:55 pm84 °FThundershowers. Passing clouds.6 mph84%29.96 "Hg10 mi
5:35 pm84 °FThundershowers. Broken clouds.6 mph84%29.95 "Hg10 mi
5:15 pm84 °FThundershowers. Partly sunny.6 mph84%29.95 "Hg10 mi
4:55 pm84 °FThundershowers. Broken clouds.9 mph84%29.97 "Hg10 mi
4:35 pm86 °FPartly sunny.8 mph79%29.97 "Hg10 mi
4:15 pm86 °FBroken clouds.13 mph79%29.98 "Hg10 mi
3:55 pm84 °FCloudy.9 mph84%29.97 "Hg10 mi
3:35 pm84 °FThundershowers. Broken clouds.14 mph84%29.98 "Hg10 mi
2:55 pm84 °FPartly sunny.15 mph79%29.99 "Hg10 mi
2:35 pm84 °FPartly sunny.13 mph79%30.00 "Hg10 mi
2:15 pm86 °FBroken clouds.16 mph75%30.00 "Hg10 mi
1:35 pm84 °FScattered clouds.16 mph79%30.01 "Hg9 mi
1:15 pm84 °FSunny.15 mph79%30.01 "Hg10 mi
12:55 pm84 °FPassing clouds.16 mph79%30.02 "Hg10 mi
12:35 pm82 °FScattered clouds.14 mph84%30.03 "Hg10 mi
12:15 pm82 °FScattered clouds.12 mph84%30.04 "Hg10 mi
Weather by CustomWeather, © 2024

See weather overview